NCAR-RAP Real-Time Weather Data

Output produced by METARs form (10 April 2020  05:33 UTC)
found at http://weather.rap.ucar.edu/surface/
 
KAMA 100453Z AUTO 09010KT 10SM CLR 08/01 A3010 RMK AO2 SLP176 T00780011
KAMA 100353Z 09011KT 10SM CLR 09/01 A3010 RMK AO2 SLP177 T00940011
KAMA 100253Z 09013KT 10SM CLR 11/02 A3008 RMK AO2 SLP167 T01060017 53018
KAMA 100153Z 08014KT 10SM CLR 12/02 A3003 RMK AO2 SLP148 T01170017
KAMA 100053Z 10012KT 10SM CLR 14/02 A3002 RMK AO2 SLP145 T01390017
KAMA 092353Z 09012KT 10SM CLR 17/02 A3002 RMK AO2 SLP141 T01670022 10172 20144 55004
KAMA 092253Z 11011KT 10SM CLR 17/04 A3000 RMK AO2 SLP131 T01670044
KAMA 092153Z 10013KT 10SM CLR 17/05 A3002 RMK AO2 SLP135 T01670050
KAMA 092053Z 12012G18KT 10SM FEW120 17/06 A3003 RMK AO2 SLP139 T01720056 58011
KAMA 091953Z 08013KT 10SM BKN120 16/06 A3006 RMK AO2 SLP150 T01610056
KAMA 091853Z 11009KT 10SM CLR 15/06 A3007 RMK AO2 SLP157 T01500056
KAMA 091753Z 11014KT 10SM CLR 15/06 A3007 RMK AO2 SLP153 T01500056 10156 20083 58004
KAMA 091653Z 09010KT 10SM CLR 13/06 A3009 RMK AO2 SLP161 T01330056
KAMA 091553Z 07013KT 10SM CLR 11/04 A3009 RMK AO2 SLP160 T01110044
KAMA 091453Z 06015KT 10SM CLR 10/04 A3008 RMK AO2 SLP161 T01000039 51017
KAMA 091353Z 04013KT 10SM CLR 10/04 A3007 RMK AO2 SLP156 T01000039
KAMA 091253Z 05010KT 10SM CLR 09/03 A3004 RMK AO2 SLP141 T00890028
KAMA 091153Z 05008KT 10SM CLR 08/02 A3003 RMK AO2 SLP132 T00830022 10156 20072 53015
KAMA 091053Z 00000KT 10SM CLR 12/02 A3001 RMK AO2 SLP122 T01170017
KAMA 090953Z 14007KT 10SM CLR 12/02 A2998 RMK AO2 SLP110 T01220022
KAMA 090853Z 13015KT 10SM CLR 13/02 A2998 RMK AO2 SLP106 T01330017 56008
KAMA 090753Z 14011KT 10SM CLR 13/01 A2998 RMK AO2 SLP109 T01280011
KAMA 090653Z 14008KT 10SM CLR 13/01 A3000 RMK AO2 SLP116 T01280011